الصفحة الرئيسية
METAR-TAF:

METAR-TAF

مطار :

بوسان, كوريا الجنوبية

دائرة عرض: 35-11N, خط طول: 128-56E, ارتفاع: 4 متر

مراقبة الطقس الحالي

تاريخ ووقت الإصدار 1ساعة و 12 دقيقة قبل الساعة 02:00UTC
ريح 8 عقدة من الشمال الغربي
درجة الحرارة 25°درجة مئوية
الرطوبة 50%
ضغط 1010 hPa
الرؤية 10 كم أو أكثر
الغيوم لا تقل 1500 م ولا وجود لمزنة ركامية السحاب الأسود

METAR: RKPK 250200Z 32008KT CAVOK 25/14 Q1010

زمن: 12:12 (03:12 UTC)

توقعات

تاريخ ووقت الإصدار 4ساعات و 12 دقيقة قبل الساعة 23:00UTC
التوقعات صالحة من25 الساعة 00 UTC إلى 26 الساعة 06 UTC
ريح 8 عقدة من الشمال/الشمال الغربي
الرؤية 10 كم أو أكثر
الغيوم لا تقل 1500 م ولا وجود لمزنة ركامية السحاب الأسود
أصبح
من 25 الساعة 03 UTC إلى 25 الساعة 04 UTC
ريح 8 عقدة من الغرب/الجنوب الغربي
أصبح
من 25 الساعة 11 UTC إلى 25 الساعة 12 UTC
ريح 6 عقدة من الشمال/الشمال الغربي
أصبح
من 26 الساعة 03 UTC إلى 26 الساعة 04 UTC
ريح 8 عقدة من الجنوب/الجنوب الغربي

TAF: RKPK 242300Z 2500/2606 34008KT CAVOK TX27/2506Z TN18/2521Z BECMG 2503/2504 25008KT BECMG 2511/2512 33006KT BECMG 2603/2604 21008KT

أرصاد الطقس والتوقعات من أكثر من 4000 مطار (تقارير الطقس للمطار METAR والتنبؤ بالطقس بالمطارTAF).

المحطات المتاحة هي النقط الصفراء والحمراء على الخريطة.

حرك المؤشر فوق النقطة لمعرفة اسم المحطة.

ثم انقر لمعرفة أرصاد وتوقعات الطقس.

لتغيير الخارطة: اضغط على الأزرار الخضراء مع رمز الصليب الأسود للتكبير. على الزر الأخضر مع شرطة للتصغير، أو على الأسهم الخضراء للخرائط المجاورة.


METAR-TAF: